WETTERDATEN

GESTERN
Time Temp. Taup. r.Fe. Windrich Windstärke Windböe Druck 1h Prec. 24h Prec.
00:01 23.3 20.6 85 172 2.8 6.1 1004 0.0000 0.0000
00:09 23.3 20.4 84 181 1.9 4.2 1003.9 0.0000 0.0000
00:18 23.2 20.3 84 194 1.9 5 1003.7 0.0000 0.0000
00:29 23.1 19.9 82 189 1.9 5.3 1003.6 0.0000 0.0000
00:39 23.1 19.5 80 169 1.9 3.9 1003.5 0.0000 0.0000
00:49 23 19.2 79 168 1.4 3.1 1003.3 0.0000 0.0000
00:59 23 19 78 183 1.9 4.2 1003.4 0.0000 0.0000
01:09 23 19 78 177 1.4 4.4 1003.2 0.0000 0.0000
01:19 22.9 18.9 78 183 1.1 2.8 1003.1 0.0000 0.0000
01:29 22.9 19.1 79 193 1.1 3.1 1003 0.0000 0.0000
01:40 22.7 18.7 78 178 1.9 4.4 1002.8 0.0000 0.0000
01:49 22.6 18.4 77 171 1.4 4.4 1002.7 0.0000 0.0000
02:02 22.6 17.7 74 171 1.1 3.9 1002.7 0.0000 0.0000
02:11 22.5 17.2 72 185 1.1 3.3 1002.6 0.0000 0.0000
02:22 22.4 16.7 70 194 1.4 3.3 1002.5 0.0000 0.0000
02:32 22.4 16.9 71 181 1.1 3.1 1002.4 0.0000 0.0000
02:42 22.3 16.6 70 175 1.9 3.9 1002.3 0.0000 0.0000
02:51 22.3 16.6 70 161 1.1 2.8 1002.2 0.0000 0.0000
03:02 22.2 16.5 70 168 1.1 2.8 1001.9 0.0000 0.0000
03:12 22.1 16.4 70 185 1.1 2.8 1001.9 0.0000 0.0000
03:22 22 16.3 70 135 1.1 2.8 1001.8 0.0000 0.0000
03:32 22 16.5 71 156 1.1 2.2 1001.7 0.0000 0.0000
03:42 21.9 16.4 71 141 0.8 2.8 1001.6 0.0000 0.0000
03:52 21.9 16.6 72 147 1.1 3.3 1001.5 0.0000 0.0000
04:02 21.9 16.6 72 115 1.1 2.8 1001.3 0.0000 0.0000
04:13 21.8 16.5 72 131 0.8 2.2 1001.2 0.0000 0.0000
04:22 21.8 16.5 72 177 1.1 3.3 1001.2 0.0000 0.0000
04:32 21.7 16.4 72 162 1.1 3.1 1001 0.0000 0.0000
04:42 21.7 16.4 72 135 0.8 2.2 1001 0.0000 0.0000
04:53 21.7 16.7 73 143 1.1 2.2 1001 0.0000 0.0000
05:02 21.6 16.6 73 176 1.1 2.8 1001 0.0000 0.0000
05:12 21.5 16.5 73 225 0.3 1.1 1001 0.0000 0.0000
05:23 21.4 16.4 73 196 0.3 1.1 1000.9 0.0000 0.0000
05:33 21.1 16.1 73 152 0.8 1.4 1000.8 0.0000 0.0000
05:42 20.9 16.1 74 90 0.3 1.4 1000.8 0.0000 0.0000
05:53 20.7 16.1 75 119 0.8 1.9 1000.8 0.0000 0.0000
06:03 20.5 15.9 75 120 0.8 1.9 1000.6 0.0000 0.0000
06:13 20.5 16.1 76 121 1.1 1.9 1000.4 0.0000 0.0000
06:22 20.5 15.9 75 147 0.8 2.2 1000.5 0.0000 0.0000
06:33 20.5 15.9 75 144 1.1 3.3 1000.4 0.0000 0.0000
06:43 20.5 15.7 74 300 0.8 1.9 1000.4 0.0000 0.0000
06:53 20.2 15.4 74 297 0.8 1.4 1000.3 0.0000 0.0000
07:04 20 15.2 74 315 0.3 1.1 1000.2 0.0000 0.0000
07:13 19.6 14.8 74 270 0.3 1.1 1000.2 0.0000 0.0000
07:23 19.3 14.8 75 45 0.3 1.1 1000.1 0.0000 0.0000
07:33 19 14.7 76 0 0.3 0.8 1000.1 0.0000 0.0000
07:44 18.8 14.7 77 26 0.3 1.1 1000.1 0.0000 0.0000
07:53 18.7 14.8 78 356 0.3 1.1 1000.1 0.0000 0.0000
08:03 18.7 14.6 77 315 0.3 1.1 999.9 0.0000 0.0000
08:14 18.7 14.8 78 317 0.8 1.4 1000 0.0000 0.0000
08:24 18.9 15.2 79 304 1.1 1.9 999.8 0.0000 0.0000
08:33 19.1 15.4 79 309 1.1 1.9 999.8 0.0000 0.0000
08:43 19.6 15.9 79 309 1.1 1.9 1000 0.0000 0.0000
08:53 20.1 16.3 79 299 1.1 1.9 1000.1 0.0000 0.0000
09:02 20.5 16.7 79 264 1.4 2.2 1000.1 0.0000 0.0000
09:13 21 17 78 237 1.4 2.8 1000 0.0000 0.0000
09:23 21.5 17.3 77 171 1.1 2.8 1000.1 0.0000 0.0000
09:33 22.3 17.7 75 186 1.4 4.4 1000.3 0.0000 0.0000
09:42 23 17.7 72 189 1.9 5.8 1000.2 0.0000 0.0000
09:52 23.5 17.9 71 212 1.4 4.4 1000.2 0.0000 0.0000
10:01 24.2 17.9 68 180 1.4 5.3 1000.3 0.0000 0.0000
10:11 24.6 17.8 66 208 1.9 4.2 1000 0.0000 0.0000
10:22 24.9 18.1 66 199 2.2 4.4 1000.2 0.0000 0.0000
10:32 25.4 18.1 64 251 1.4 3.9 1000.2 0.0000 0.0000
10:42 25.6 17.8 62 218 1.9 4.2 1000.1 0.0000 0.0000
10:52 25.9 18.3 63 258 3.1 4.4 999.9 0.0000 0.0000
11:02 26.3 18.4 62 135 2.2 4.4 999.7 0.0000 0.0000
11:12 26.3 18.4 62 115 3.1 7.5 999.4 0.0000 0.0000
11:22 26.2 18.1 61 151 2.2 4.4 999.7 0.0000 0.0000
11:32 26.2 18.1 61 155 2.8 5.3 999.8 0.0000 0.0000
11:42 26 17.9 61 197 2.8 6.9 1000 0.0000 0.0000
11:52 26.1 18.8 64 137 1.9 4.4 1000 0.0000 0.0000
12:03 26.5 19.4 65 223 1.9 4.4 1000 0.0000 0.0000
12:13 26.8 19.4 64 178 2.8 6.9 1000 0.0000 0.0000
12:22 26.7 19.3 64 176 2.8 5.3 1000.2 0.0000 0.0000
12:32 26.3 19.4 66 191 1.9 3.9 1000.1 0.0000 0.0000
12:43 26.1 19.5 67 194 2.2 5 1000.1 0.0000 0.0000
12:53 26.1 19.7 68 151 1.9 5.3 1000.2 0.0000 0.0000
13:02 26.1 19.7 68 146 1.9 4.2 1000 0.0000 0.0000
13:13 26 19.4 67 237 0.8 2.8 999.9 0.0000 0.0000
13:23 26.2 18.1 61 249 1.4 4.4 999.9 0.0000 0.0000
13:33 26.1 18 61 255 1.1 4.2 999.7 0.0000 0.0000
13:43 26.1 18.3 62 225 1.1 3.1 999.3 0.0000 0.0000
13:53 26.1 18 61 214 0.8 1.9 999 0.0000 0.0000
14:03 26.1 18 61 225 0.8 1.4 998.9 0.0000 0.0000
14:13 25.9 18.6 64 213 1.1 3.3 998.6 0.0000 0.0000
14:23 25.7 18.1 63 137 1.1 2.8 998.3 0.1010 0.1000
14:33 25.7 18.6 65 161 0.8 1.9 998.3 0.1010 0.1000
14:43 25.6 18.5 65 189 1.4 3.1 998.4 0.1010 0.1000
14:53 25.6 18 63 160 1.1 2.8 998.2 0.1010 0.1000
15:04 25.7 18.6 65 165 1.1 3.9 998.2 0.1010 0.1000
15:13 25.7 18.6 65 90 1.1 3.3 998.2 0.0000 0.1000
15:23 25.7 18.4 64 137 1.4 3.3 998.2 0.0000 0.1000
15:34 25.8 18.7 65 206 1.1 3.3 998.2 0.0000 0.1000
15:44 26 18.9 65 228 1.9 4.4 997.8 0.0000 0.1000
15:53 26.2 18.9 64 108 2.2 5.3 997.5 0.0000 0.1000
16:04 26.3 19.2 65 126 1.9 4.2 997.4 0.0000 0.1000
16:14 26.2 19.8 68 123 1.9 5.3 997.2 0.0000 0.1000
16:24 26 19.6 68 145 1.1 3.1 997.3 0.0000 0.1000
16:33 26 18.7 64 225 1.1 3.1 997.4 0.0000 0.1000
16:44 26.1 18 61 210 0.8 1.9 997.2 0.0000 0.1000
16:54 26.2 17.8 60 230 0.8 1.9 997.4 0.0000 0.1000
17:04 26.3 17.9 60 203 0.8 2.2 997.4 0.0000 0.1000
17:14 26.2 17.6 59 225 0.8 1.9 997.4 0.0000 0.1000
17:24 26.2 17.6 59 229 1.4 5.3 997.5 0.0000 0.1000
17:34 26.3 17.4 58 292 1.4 5 997.2 0.0000 0.1000
17:44 26.3 17.4 58 293 1.4 3.9 996.8 0.0000 0.1000
17:54 26.3 17.1 57 288 2.2 6.1 996.5 0.0000 0.1000
18:04 26.3 17.1 57 279 1.1 3.9 996.5 0.0000 0.1000
18:14 26.1 16.9 57 270 1.1 3.1 996.5 0.0000 0.1000
18:25 26 16.8 57 270 0.8 3.1 996.5 0.0000 0.1000
18:34 25.8 16.9 58 270 0.8 1.4 996.6 0.0000 0.1000
18:44 25.6 17 59 285 0.8 1.4 996.6 0.0000 0.1000
18:54 25.2 16.9 60 23 0.3 1.4 996.5 0.0000 0.1000
19:05 24.9 16.9 61 191 0.3 1.4 996.6 0.0000 0.1000
19:14 24.7 16.7 61 144 1.4 3.3 996.6 0.0000 0.1000
19:24 24.7 17.9 66 162 1.1 4.2 996.6 0.0000 0.1000
19:35 24.7 17.9 66 114 0.8 2.2 996.5 0.0000 0.1000
19:45 24.8 18.3 67 157 1.4 2.8 996.4 0.0000 0.1000
19:54 24.8 18.7 69 113 1.4 3.3 996.3 0.0000 0.1000
20:04 24.8 19.2 71 121 1.9 4.2 996 0.0000 0.1000
20:15 24.7 19.5 73 127 1.4 3.3 996 0.0000 0.1000
20:20 24.7 19.5 73 135 1.9 6.9 996.1 0.0000 0.1000
20:29 24.7 18.9 70 178 2.8 6.4 995.7 0.0000 0.1000
20:40 24.9 18.6 68 175 3.1 6.9 995.7 0.0000 0.1000
20:50 25.1 18.5 67 176 3.1 8.1 995.9 0.0000 0.1000
21:00 25.2 18.6 67 173 2.2 5.8 996 0.0000 0.1000
21:09 25.2 18.9 68 181 2.8 8.1 996.2 0.0000 0.1000
21:20 25.2 18.6 67 180 2.8 5.8 996.4 0.0000 0.1000
21:30 25.2 18.4 66 197 3.1 6.9 996.5 0.0000 0.1000
21:40 25.3 17.8 63 170 1.9 5 996.5 0.0000 0.1000
21:50 25.4 19.1 68 172 2.8 7.5 996.1 0.0000 0.1000
22:00 25.3 19.4 70 173 3.1 7.2 996.2 0.0000 0.1000
22:10 25.2 19.8 72 170 2.8 5.8 996 0.0000 0.1000
22:29 25 19.6 72 194 3.3 7.5 997 0.3030 0.4000
22:31 25 19.8 73 227 4.2 11.4 997.3 1.2120 1.3000
22:41 24.5 19.3 73 289 5.8 8.6 998.1 2.3230 2.4000
22:51 23.6 18.7 74 295 6.4 11.7 998.2 3.6360 3.7000
23:01 23 18.5 76 323 4.2 7.2 997.8 4.0400 4.1000
23:11 22.6 18.4 77 287 3.9 5.3 998.1 4.1410 4.2000
23:21 22.3 18.5 79 286 2.2 3.3 998.2 3.8380 4.2000
23:31 22 18.4 80 290 2.2 5.8 998.4 2.3230 4.2000
23:42 21.7 18.3 81 297 2.8 5.3 998.4 1.3130 4.2000
23:52 21.6 18.4 82 299 3.1 5.3 998.3 0.2020 4.2000

TAGESSTATISTIK

2020-09-26
TEMPERATUR
MITTEL
23.7
MAXIMUM
26.8
12:13
MINIMUM
18.7
07:53
LUFTDRUCK
MITTEL
999.4
MAXIMUM
1004.0
00:01
MINIMUM
995.7
20:29
TAUPUNKT
MITTEL
17.8
MAXIMUM
20.6
00:01
MINIMUM
14.6
08:03
FEUCHTIGKEIT
MITTEL
70
MAXIMUM
85
00:01
MINIMUM
57
17:54
WINDSTÄRKE
MITTEL
1.6
MAXIMUM
6.4
22:51
WINDBÖE
MITTEL
3.8
MAXIMUM
11.7
22:51
WINDRICHTUNG
VORHERRSCHENDE
S
36.8%
N
1.4
NO
2.1
O
2.1
SO
22.9
S
36.8
SW
13.2
W
11.8
NW
9.7
NIEDERSCHLAG
REGEN STUNDE
4.1
REGEN TAG
4.2
TEMPERATUR (°C)
MINIMUM
18.7
MAXIMUM
26.8
MITTEL
23.7
LUFTDRUCK (hpa)
MINIMUM
995.7
MAXIMUM
1004.0
MITTEL
999.4
MESSGERÄT